Sao Roque, Brazil
Current Conditions -  °F | °C
As of 2:00 AM on Wednesday 26 Nov 2014 (Local Time) from SBSP Reporting Station
Light Rain Light Rain  
Wind Chill: 70°   Ceiling: 700
Heat Index: 70°   Visibility: 6mi
Dew Point: 66°   Wind: 7mph
Humidity: 88%   Direction: 30°NNE
Pressure: 29.88"   Gusts: NA
Location:  23.53°S, 47.14°W
Report Text: SBSP 260400Z 03006KT 360V070 9999 -RA BKN007 BKN100 21/19 Q1012
Loading
Personal Weather Stations






























Interactive Weather Map New forecast layout! Learn more

10-Day Weather Forecast

Advertisements
Track Severe Weather on mobile